sensor_id;sensor_type;location;lat;lon;timestamp;P1;durP1;ratioP1;P2;durP2;ratioP2
11646;SDS011;5880;52.342;9.662;2023-09-12T00:01:25;6.43;;;5.85;;
11646;SDS011;5880;52.342;9.662;2023-09-12T00:03:50;6.63;;;6.03;;
11646;SDS011;5880;52.342;9.662;2023-09-12T00:06:16;7.00;;;5.97;;
11646;SDS011;5880;52.342;9.662;2023-09-12T00:08:42;8.82;;;6.45;;
11646;SDS011;5880;52.342;9.662;2023-09-12T00:11:08;6.88;;;6.28;;
11646;SDS011;5880;52.342;9.662;2023-09-12T00:13:36;8.48;;;7.00;;
11646;SDS011;5880;52.342;9.662;2023-09-12T00:16:06;9.07;;;7.20;;
11646;SDS011;5880;52.342;9.662;2023-09-12T00:18:38;8.23;;;7.30;;
11646;SDS011;5880;52.342;9.662;2023-09-12T00:21:05;8.23;;;7.43;;
11646;SDS011;5880;52.342;9.662;2023-09-12T00:23:30;8.45;;;7.65;;
11646;SDS011;5880;52.342;9.662;2023-09-12T00:25:57;8.32;;;7.47;;
11646;SDS011;5880;52.342;9.662;2023-09-12T00:28:23;8.55;;;7.65;;
11646;SDS011;5880;52.342;9.662;2023-09-12T00:30:49;7.13;;;6.53;;
11646;SDS011;5880;52.342;9.662;2023-09-12T00:33:16;7.63;;;7.03;;
11646;SDS011;5880;52.342;9.662;2023-09-12T00:35:43;7.75;;;7.05;;
11646;SDS011;5880;52.342;9.662;2023-09-12T00:38:09;7.82;;;6.97;;
11646;SDS011;5880;52.342;9.662;2023-09-12T00:40:35;7.50;;;6.90;;
11646;SDS011;5880;52.342;9.662;2023-09-12T00:43:02;7.68;;;6.93;;
11646;SDS011;5880;52.342;9.662;2023-09-12T00:45:28;7.30;;;6.60;;
11646;SDS011;5880;52.342;9.662;2023-09-12T00:47:54;7.57;;;6.72;;
11646;SDS011;5880;52.342;9.662;2023-09-12T00:50:23;7.63;;;6.93;;
11646;SDS011;5880;52.342;9.662;2023-09-12T00:52:51;6.82;;;6.22;;
11646;SDS011;5880;52.342;9.662;2023-09-12T00:55:19;7.13;;;6.43;;
11646;SDS011;5880;52.342;9.662;2023-09-12T00:57:45;7.43;;;6.72;;
11646;SDS011;5880;52.342;9.662;2023-09-12T01:00:12;7.65;;;6.85;;
11646;SDS011;5880;52.342;9.662;2023-09-12T01:02:39;7.53;;;6.50;;
11646;SDS011;5880;52.342;9.662;2023-09-12T01:05:07;8.00;;;7.25;;
11646;SDS011;5880;52.342;9.662;2023-09-12T01:07:35;8.45;;;7.68;;
11646;SDS011;5880;52.342;9.662;2023-09-12T01:10:03;8.68;;;7.40;;
11646;SDS011;5880;52.342;9.662;2023-09-12T01:12:32;7.90;;;7.10;;
11646;SDS011;5880;52.342;9.662;2023-09-12T01:14:58;7.97;;;6.82;;
11646;SDS011;5880;52.342;9.662;2023-09-12T01:17:24;8.07;;;7.28;;
11646;SDS011;5880;52.342;9.662;2023-09-12T01:19:51;8.43;;;7.45;;
11646;SDS011;5880;52.342;9.662;2023-09-12T01:22:23;7.88;;;7.00;;
11646;SDS011;5880;52.342;9.662;2023-09-12T01:25:34;7.65;;;6.95;;
11646;SDS011;5880;52.342;9.662;2023-09-12T01:28:37;7.88;;;7.10;;
11646;SDS011;5880;52.342;9.662;2023-09-12T01:31:07;7.47;;;6.72;;
11646;SDS011;5880;52.342;9.662;2023-09-12T01:33:34;8.13;;;7.20;;
11646;SDS011;5880;52.342;9.662;2023-09-12T01:36:00;8.00;;;7.30;;
11646;SDS011;5880;52.342;9.662;2023-09-12T01:38:26;7.40;;;6.63;;
11646;SDS011;5880;52.342;9.662;2023-09-12T01:40:52;8.10;;;7.40;;
11646;SDS011;5880;52.342;9.662;2023-09-12T01:43:21;8.45;;;7.65;;
11646;SDS011;5880;52.342;9.662;2023-09-12T01:45:52;8.60;;;7.10;;
11646;SDS011;5880;52.342;9.662;2023-09-12T01:48:21;7.47;;;6.88;;
11646;SDS011;5880;52.342;9.662;2023-09-12T01:50:55;7.65;;;6.93;;
11646;SDS011;5880;52.342;9.662;2023-09-12T01:53:21;7.60;;;6.95;;
11646;SDS011;5880;52.342;9.662;2023-09-12T01:55:47;7.68;;;7.07;;
11646;SDS011;5880;52.342;9.662;2023-09-12T01:58:14;7.60;;;6.88;;
11646;SDS011;5880;52.342;9.662;2023-09-12T02:00:40;7.78;;;7.10;;
11646;SDS011;5880;52.342;9.662;2023-09-12T02:03:06;7.80;;;7.10;;
11646;SDS011;5880;52.342;9.662;2023-09-12T02:05:32;8.35;;;6.85;;
11646;SDS011;5880;52.342;9.662;2023-09-12T02:07:58;7.80;;;7.10;;
11646;SDS011;5880;52.342;9.662;2023-09-12T02:10:27;7.88;;;7.07;;
11646;SDS011;5880;52.342;9.662;2023-09-12T02:12:52;8.10;;;7.30;;
11646;SDS011;5880;52.342;9.662;2023-09-12T02:15:18;9.40;;;7.28;;
11646;SDS011;5880;52.342;9.662;2023-09-12T02:17:44;7.63;;;6.93;;
11646;SDS011;5880;52.342;9.662;2023-09-12T02:20:09;7.90;;;7.20;;
11646;SDS011;5880;52.342;9.662;2023-09-12T02:22:36;7.85;;;7.13;;
11646;SDS011;5880;52.342;9.662;2023-09-12T02:25:03;7.85;;;7.15;;
11646;SDS011;5880;52.342;9.662;2023-09-12T02:27:30;8.05;;;7.25;;
11646;SDS011;5880;52.342;9.662;2023-09-12T02:29:56;8.43;;;7.65;;
11646;SDS011;5880;52.342;9.662;2023-09-12T02:32:22;9.20;;;8.30;;
11646;SDS011;5880;52.342;9.662;2023-09-12T02:34:47;8.55;;;7.75;;
11646;SDS011;5880;52.342;9.662;2023-09-12T02:37:13;9.70;;;8.75;;
11646;SDS011;5880;52.342;9.662;2023-09-12T02:39:40;9.43;;;8.50;;
11646;SDS011;5880;52.342;9.662;2023-09-12T02:42:06;9.38;;;8.57;;
11646;SDS011;5880;52.342;9.662;2023-09-12T02:44:32;8.88;;;8.07;;
11646;SDS011;5880;52.342;9.662;2023-09-12T02:46:57;9.07;;;8.18;;
11646;SDS011;5880;52.342;9.662;2023-09-12T02:49:23;9.65;;;8.73;;
11646;SDS011;5880;52.342;9.662;2023-09-12T02:51:49;9.57;;;8.63;;
11646;SDS011;5880;52.342;9.662;2023-09-12T02:54:14;8.75;;;7.93;;
11646;SDS011;5880;52.342;9.662;2023-09-12T02:56:40;9.02;;;8.10;;
11646;SDS011;5880;52.342;9.662;2023-09-12T02:59:06;8.80;;;8.00;;
11646;SDS011;5880;52.342;9.662;2023-09-12T03:01:31;8.82;;;7.88;;
11646;SDS011;5880;52.342;9.662;2023-09-12T03:03:57;8.90;;;7.80;;
11646;SDS011;5880;52.342;9.662;2023-09-12T03:06:23;8.48;;;7.60;;
11646;SDS011;5880;52.342;9.662;2023-09-12T03:08:49;9.15;;;8.27;;
11646;SDS011;5880;52.342;9.662;2023-09-12T03:11:15;9.85;;;8.20;;
11646;SDS011;5880;52.342;9.662;2023-09-12T03:13:41;8.82;;;8.02;;
11646;SDS011;5880;52.342;9.662;2023-09-12T03:16:13;8.25;;;7.55;;
11646;SDS011;5880;52.342;9.662;2023-09-12T03:18:40;9.00;;;8.15;;
11646;SDS011;5880;52.342;9.662;2023-09-12T03:21:06;9.00;;;8.20;;
11646;SDS011;5880;52.342;9.662;2023-09-12T03:23:31;9.15;;;8.35;;
11646;SDS011;5880;52.342;9.662;2023-09-12T03:26:04;9.15;;;8.10;;
11646;SDS011;5880;52.342;9.662;2023-09-12T03:28:31;8.75;;;7.88;;
11646;SDS011;5880;52.342;9.662;2023-09-12T03:31:07;9.18;;;7.95;;
11646;SDS011;5880;52.342;9.662;2023-09-12T03:33:39;8.65;;;7.85;;
11646;SDS011;5880;52.342;9.662;2023-09-12T03:36:06;8.55;;;7.85;;
11646;SDS011;5880;52.342;9.662;2023-09-12T03:38:33;8.98;;;8.18;;
11646;SDS011;5880;52.342;9.662;2023-09-12T03:41:00;8.93;;;8.07;;
11646;SDS011;5880;52.342;9.662;2023-09-12T03:43:26;9.52;;;8.63;;
11646;SDS011;5880;52.342;9.662;2023-09-12T03:45:52;9.85;;;8.45;;
11646;SDS011;5880;52.342;9.662;2023-09-12T03:48:18;10.35;;;9.32;;
11646;SDS011;5880;52.342;9.662;2023-09-12T03:50:44;10.50;;;9.55;;
11646;SDS011;5880;52.342;9.662;2023-09-12T03:53:10;11.63;;;9.48;;
11646;SDS011;5880;52.342;9.662;2023-09-12T03:55:36;10.85;;;9.85;;
11646;SDS011;5880;52.342;9.662;2023-09-12T03:58:02;9.75;;;8.80;;
11646;SDS011;5880;52.342;9.662;2023-09-12T04:00:28;10.77;;;9.77;;
11646;SDS011;5880;52.342;9.662;2023-09-12T04:02:54;9.93;;;8.93;;
11646;SDS011;5880;52.342;9.662;2023-09-12T04:05:20;9.98;;;9.07;;
11646;SDS011;5880;52.342;9.662;2023-09-12T04:07:45;10.75;;;9.65;;
11646;SDS011;5880;52.342;9.662;2023-09-12T04:10:11;9.88;;;8.80;;
11646;SDS011;5880;52.342;9.662;2023-09-12T04:12:37;10.48;;;9.48;;
11646;SDS011;5880;52.342;9.662;2023-09-12T04:15:02;10.55;;;9.55;;
11646;SDS011;5880;52.342;9.662;2023-09-12T04:17:28;10.32;;;9.27;;
11646;SDS011;5880;52.342;9.662;2023-09-12T04:19:54;9.32;;;8.43;;
11646;SDS011;5880;52.342;9.662;2023-09-12T04:22:20;10.25;;;8.70;;
11646;SDS011;5880;52.342;9.662;2023-09-12T04:24:45;9.18;;;8.20;;
11646;SDS011;5880;52.342;9.662;2023-09-12T04:27:11;9.70;;;8.35;;
11646;SDS011;5880;52.342;9.662;2023-09-12T04:29:36;8.73;;;7.93;;
11646;SDS011;5880;52.342;9.662;2023-09-12T04:32:03;8.25;;;7.45;;
11646;SDS011;5880;52.342;9.662;2023-09-12T04:34:29;7.65;;;6.95;;
11646;SDS011;5880;52.342;9.662;2023-09-12T04:36:55;7.90;;;7.20;;
11646;SDS011;5880;52.342;9.662;2023-09-12T04:39:21;6.97;;;6.38;;
11646;SDS011;5880;52.342;9.662;2023-09-12T04:41:47;7.47;;;6.15;;
11646;SDS011;5880;52.342;9.662;2023-09-12T04:44:13;5.78;;;5.28;;
11646;SDS011;5880;52.342;9.662;2023-09-12T04:46:38;6.05;;;5.55;;
11646;SDS011;5880;52.342;9.662;2023-09-12T04:49:04;6.13;;;5.57;;
11646;SDS011;5880;52.342;9.662;2023-09-12T04:51:30;5.47;;;5.07;;
11646;SDS011;5880;52.342;9.662;2023-09-12T04:53:55;5.82;;;5.22;;
11646;SDS011;5880;52.342;9.662;2023-09-12T04:56:21;6.55;;;5.38;;
11646;SDS011;5880;52.342;9.662;2023-09-12T04:58:49;5.22;;;4.82;;
11646;SDS011;5880;52.342;9.662;2023-09-12T05:01:15;4.82;;;4.43;;
11646;SDS011;5880;52.342;9.662;2023-09-12T05:03:41;5.38;;;4.88;;
11646;SDS011;5880;52.342;9.662;2023-09-12T05:06:08;5.28;;;4.80;;
11646;SDS011;5880;52.342;9.662;2023-09-12T05:08:35;5.72;;;5.13;;
11646;SDS011;5880;52.342;9.662;2023-09-12T05:11:01;5.97;;;4.50;;
11646;SDS011;5880;52.342;9.662;2023-09-12T05:13:27;4.68;;;4.28;;
11646;SDS011;5880;52.342;9.662;2023-09-12T05:15:54;4.85;;;4.45;;
11646;SDS011;5880;52.342;9.662;2023-09-12T05:18:21;5.20;;;4.70;;
11646;SDS011;5880;52.342;9.662;2023-09-12T05:20:47;5.70;;;4.95;;
11646;SDS011;5880;52.342;9.662;2023-09-12T05:23:13;5.80;;;5.20;;
11646;SDS011;5880;52.342;9.662;2023-09-12T05:25:38;5.53;;;5.03;;
11646;SDS011;5880;52.342;9.662;2023-09-12T05:28:04;4.75;;;4.35;;
11646;SDS011;5880;52.342;9.662;2023-09-12T05:30:30;5.60;;;5.10;;
11646;SDS011;5880;52.342;9.662;2023-09-12T05:32:56;4.80;;;4.40;;
11646;SDS011;5880;52.342;9.662;2023-09-12T05:35:21;5.13;;;4.63;;
11646;SDS011;5880;52.342;9.662;2023-09-12T05:37:47;5.30;;;4.75;;
11646;SDS011;5880;52.342;9.662;2023-09-12T05:40:13;5.40;;;4.40;;
11646;SDS011;5880;52.342;9.662;2023-09-12T05:42:38;5.25;;;4.75;;
11646;SDS011;5880;52.342;9.662;2023-09-12T05:45:05;5.43;;;4.93;;
11646;SDS011;5880;52.342;9.662;2023-09-12T05:47:32;4.95;;;4.47;;
11646;SDS011;5880;52.342;9.662;2023-09-12T05:49:57;9.80;;;6.03;;
11646;SDS011;5880;52.342;9.662;2023-09-12T05:52:25;7.85;;;6.57;;
11646;SDS011;5880;52.342;9.662;2023-09-12T05:54:51;7.00;;;4.93;;
11646;SDS011;5880;52.342;9.662;2023-09-12T05:57:17;7.32;;;5.43;;
11646;SDS011;5880;52.342;9.662;2023-09-12T05:59:42;7.47;;;5.30;;
11646;SDS011;5880;52.342;9.662;2023-09-12T06:02:08;5.72;;;4.60;;
11646;SDS011;5880;52.342;9.662;2023-09-12T06:04:35;7.88;;;5.03;;
11646;SDS011;5880;52.342;9.662;2023-09-12T06:07:01;4.65;;;3.67;;
11646;SDS011;5880;52.342;9.662;2023-09-12T06:09:28;4.03;;;3.50;;
11646;SDS011;5880;52.342;9.662;2023-09-12T06:11:54;3.90;;;3.50;;
11646;SDS011;5880;52.342;9.662;2023-09-12T06:14:19;3.95;;;3.55;;
11646;SDS011;5880;52.342;9.662;2023-09-12T06:16:45;5.13;;;3.80;;
11646;SDS011;5880;52.342;9.662;2023-09-12T06:19:11;4.47;;;4.07;;
11646;SDS011;5880;52.342;9.662;2023-09-12T06:21:38;5.07;;;4.50;;
11646;SDS011;5880;52.342;9.662;2023-09-12T06:24:08;7.32;;;4.13;;
11646;SDS011;5880;52.342;9.662;2023-09-12T06:26:39;4.90;;;4.10;;
11646;SDS011;5880;52.342;9.662;2023-09-12T06:29:05;5.30;;;4.75;;
11646;SDS011;5880;52.342;9.662;2023-09-12T06:31:32;6.47;;;4.45;;
11646;SDS011;5880;52.342;9.662;2023-09-12T06:33:58;5.60;;;5.03;;
11646;SDS011;5880;52.342;9.662;2023-09-12T06:36:24;5.38;;;4.85;;
11646;SDS011;5880;52.342;9.662;2023-09-12T06:38:51;5.22;;;4.72;;
11646;SDS011;5880;52.342;9.662;2023-09-12T06:41:20;5.18;;;4.63;;
11646;SDS011;5880;52.342;9.662;2023-09-12T06:43:46;5.15;;;4.65;;
11646;SDS011;5880;52.342;9.662;2023-09-12T06:46:12;5.45;;;4.95;;
11646;SDS011;5880;52.342;9.662;2023-09-12T06:48:39;5.30;;;4.80;;
11646;SDS011;5880;52.342;9.662;2023-09-12T06:51:05;4.95;;;4.55;;
11646;SDS011;5880;52.342;9.662;2023-09-12T06:53:34;6.65;;;4.78;;
11646;SDS011;5880;52.342;9.662;2023-09-12T06:56:01;5.93;;;5.25;;
11646;SDS011;5880;52.342;9.662;2023-09-12T06:58:28;5.43;;;4.95;;
11646;SDS011;5880;52.342;9.662;2023-09-12T07:00:54;6.03;;;5.47;;
11646;SDS011;5880;52.342;9.662;2023-09-12T07:03:20;7.07;;;5.95;;
11646;SDS011;5880;52.342;9.662;2023-09-12T07:05:46;6.50;;;5.75;;
11646;SDS011;5880;52.342;9.662;2023-09-12T07:08:13;6.65;;;6.05;;
11646;SDS011;5880;52.342;9.662;2023-09-12T07:10:45;6.45;;;5.85;;
11646;SDS011;5880;52.342;9.662;2023-09-12T07:13:10;6.53;;;5.70;;
11646;SDS011;5880;52.342;9.662;2023-09-12T07:15:36;7.05;;;6.43;;
11646;SDS011;5880;52.342;9.662;2023-09-12T07:18:02;7.10;;;6.40;;
11646;SDS011;5880;52.342;9.662;2023-09-12T07:20:30;7.47;;;6.78;;
11646;SDS011;5880;52.342;9.662;2023-09-12T07:22:56;7.35;;;6.55;;
11646;SDS011;5880;52.342;9.662;2023-09-12T07:25:21;7.90;;;7.10;;
11646;SDS011;5880;52.342;9.662;2023-09-12T07:27:48;6.93;;;6.32;;
11646;SDS011;5880;52.342;9.662;2023-09-12T07:30:17;7.10;;;6.40;;
11646;SDS011;5880;52.342;9.662;2023-09-12T07:32:44;7.78;;;6.97;;
11646;SDS011;5880;52.342;9.662;2023-09-12T07:35:10;7.88;;;6.95;;
11646;SDS011;5880;52.342;9.662;2023-09-12T07:37:35;7.10;;;6.47;;
11646;SDS011;5880;52.342;9.662;2023-09-12T07:40:01;8.60;;;7.80;;
11646;SDS011;5880;52.342;9.662;2023-09-12T07:42:34;8.60;;;7.80;;
11646;SDS011;5880;52.342;9.662;2023-09-12T07:45:00;9.52;;;8.50;;
11646;SDS011;5880;52.342;9.662;2023-09-12T07:47:28;8.43;;;7.63;;
11646;SDS011;5880;52.342;9.662;2023-09-12T07:49:53;8.07;;;7.28;;
11646;SDS011;5880;52.342;9.662;2023-09-12T07:52:19;9.20;;;8.30;;
11646;SDS011;5880;52.342;9.662;2023-09-12T07:54:46;8.50;;;7.72;;
11646;SDS011;5880;52.342;9.662;2023-09-12T07:57:11;8.68;;;7.78;;
11646;SDS011;5880;52.342;9.662;2023-09-12T07:59:37;8.68;;;7.88;;
11646;SDS011;5880;52.342;9.662;2023-09-12T08:02:03;8.80;;;8.00;;
11646;SDS011;5880;52.342;9.662;2023-09-12T08:04:29;8.15;;;7.45;;
11646;SDS011;5880;52.342;9.662;2023-09-12T08:06:54;8.63;;;7.88;;
11646;SDS011;5880;52.342;9.662;2023-09-12T08:09:20;7.82;;;7.13;;
11646;SDS011;5880;52.342;9.662;2023-09-12T08:11:46;7.75;;;7.05;;
11646;SDS011;5880;52.342;9.662;2023-09-12T08:14:11;15.00;;;7.82;;
11646;SDS011;5880;52.342;9.662;2023-09-12T08:16:37;8.52;;;7.72;;
11646;SDS011;5880;52.342;9.662;2023-09-12T08:19:03;8.88;;;7.97;;
11646;SDS011;5880;52.342;9.662;2023-09-12T08:21:29;8.70;;;7.90;;
11646;SDS011;5880;52.342;9.662;2023-09-12T08:23:55;8.35;;;7.55;;
11646;SDS011;5880;52.342;9.662;2023-09-12T08:26:21;9.02;;;8.13;;
11646;SDS011;5880;52.342;9.662;2023-09-12T08:28:46;9.23;;;8.32;;
11646;SDS011;5880;52.342;9.662;2023-09-12T08:31:12;8.68;;;7.88;;
11646;SDS011;5880;52.342;9.662;2023-09-12T08:33:37;9.18;;;8.30;;
11646;SDS011;5880;52.342;9.662;2023-09-12T08:36:03;8.73;;;7.93;;
11646;SDS011;5880;52.342;9.662;2023-09-12T08:38:29;8.93;;;8.13;;
11646;SDS011;5880;52.342;9.662;2023-09-12T08:40:55;8.10;;;7.30;;
11646;SDS011;5880;52.342;9.662;2023-09-12T08:43:22;7.15;;;6.43;;
11646;SDS011;5880;52.342;9.662;2023-09-12T08:45:47;6.65;;;6.05;;
11646;SDS011;5880;52.342;9.662;2023-09-12T08:48:15;5.57;;;5.07;;
11646;SDS011;5880;52.342;9.662;2023-09-12T08:50:42;5.05;;;4.65;;
11646;SDS011;5880;52.342;9.662;2023-09-12T08:53:09;4.40;;;4.00;;
11646;SDS011;5880;52.342;9.662;2023-09-12T08:55:35;4.05;;;3.75;;
11646;SDS011;5880;52.342;9.662;2023-09-12T08:58:02;3.80;;;3.33;;
11646;SDS011;5880;52.342;9.662;2023-09-12T09:00:29;3.45;;;3.15;;
11646;SDS011;5880;52.342;9.662;2023-09-12T09:02:56;3.10;;;2.90;;
11646;SDS011;5880;52.342;9.662;2023-09-12T09:05:22;3.40;;;3.10;;
11646;SDS011;5880;52.342;9.662;2023-09-12T09:07:50;3.45;;;3.15;;
11646;SDS011;5880;52.342;9.662;2023-09-12T09:10:17;3.25;;;3.00;;
11646;SDS011;5880;52.342;9.662;2023-09-12T09:12:46;3.00;;;2.72;;
11646;SDS011;5880;52.342;9.662;2023-09-12T09:15:21;3.25;;;2.95;;
11646;SDS011;5880;52.342;9.662;2023-09-12T09:17:49;3.97;;;2.80;;
11646;SDS011;5880;52.342;9.662;2023-09-12T09:20:30;3.63;;;3.33;;
11646;SDS011;5880;52.342;9.662;2023-09-12T09:23:00;3.47;;;3.17;;
11646;SDS011;5880;52.342;9.662;2023-09-12T09:25:34;3.50;;;3.20;;
11646;SDS011;5880;52.342;9.662;2023-09-12T09:28:04;3.83;;;3.53;;
11646;SDS011;5880;52.342;9.662;2023-09-12T09:30:44;3.35;;;3.05;;
11646;SDS011;5880;52.342;9.662;2023-09-12T09:33:12;3.33;;;2.92;;
11646;SDS011;5880;52.342;9.662;2023-09-12T09:35:42;3.67;;;3.38;;
11646;SDS011;5880;52.342;9.662;2023-09-12T09:38:13;3.60;;;3.30;;
11646;SDS011;5880;52.342;9.662;2023-09-12T09:40:41;5.25;;;3.90;;
11646;SDS011;5880;52.342;9.662;2023-09-12T09:43:09;4.15;;;3.75;;
11646;SDS011;5880;52.342;9.662;2023-09-12T09:45:42;4.00;;;3.45;;
11646;SDS011;5880;52.342;9.662;2023-09-12T09:48:22;4.07;;;3.67;;
11646;SDS011;5880;52.342;9.662;2023-09-12T09:50:52;3.45;;;3.15;;
11646;SDS011;5880;52.342;9.662;2023-09-12T09:53:21;4.07;;;3.40;;
11646;SDS011;5880;52.342;9.662;2023-09-12T09:55:51;4.80;;;3.45;;
11646;SDS011;5880;52.342;9.662;2023-09-12T09:58:17;3.85;;;3.53;;
11646;SDS011;5880;52.342;9.662;2023-09-12T10:00:43;3.80;;;3.50;;
11646;SDS011;5880;52.342;9.662;2023-09-12T10:03:10;3.83;;;3.53;;
11646;SDS011;5880;52.342;9.662;2023-09-12T10:05:38;3.80;;;3.38;;
11646;SDS011;5880;52.342;9.662;2023-09-12T10:08:06;3.72;;;3.42;;
11646;SDS011;5880;52.342;9.662;2023-09-12T10:10:35;3.47;;;3.17;;
11646;SDS011;5880;52.342;9.662;2023-09-12T10:13:04;4.10;;;3.63;;
11646;SDS011;5880;52.342;9.662;2023-09-12T10:15:33;5.93;;;3.97;;
11646;SDS011;5880;52.342;9.662;2023-09-12T10:18:04;5.20;;;4.00;;
11646;SDS011;5880;52.342;9.662;2023-09-12T10:20:35;5.70;;;3.85;;
11646;SDS011;5880;52.342;9.662;2023-09-12T10:23:16;4.35;;;3.95;;
11646;SDS011;5880;52.342;9.662;2023-09-12T10:26:11;4.80;;;4.03;;
11646;SDS011;5880;52.342;9.662;2023-09-12T10:28:42;4.53;;;4.13;;
11646;SDS011;5880;52.342;9.662;2023-09-12T10:31:09;5.35;;;3.88;;
11646;SDS011;5880;52.342;9.662;2023-09-12T10:33:38;4.43;;;4.03;;
11646;SDS011;5880;52.342;9.662;2023-09-12T10:36:05;4.07;;;3.67;;
11646;SDS011;5880;52.342;9.662;2023-09-12T10:38:33;4.93;;;4.25;;
11646;SDS011;5880;52.342;9.662;2023-09-12T10:41:10;4.32;;;3.92;;
11646;SDS011;5880;52.342;9.662;2023-09-12T10:43:39;4.05;;;3.75;;
11646;SDS011;5880;52.342;9.662;2023-09-12T10:46:07;3.90;;;3.60;;
11646;SDS011;5880;52.342;9.662;2023-09-12T10:48:36;5.20;;;4.10;;
11646;SDS011;5880;52.342;9.662;2023-09-12T10:51:04;4.50;;;4.10;;
11646;SDS011;5880;52.342;9.662;2023-09-12T10:53:33;3.92;;;3.63;;
11646;SDS011;5880;52.342;9.662;2023-09-12T10:56:01;4.30;;;4.00;;
11646;SDS011;5880;52.342;9.662;2023-09-12T10:59:13;4.47;;;4.07;;
11646;SDS011;5880;52.342;9.662;2023-09-12T11:01:35;3.95;;;3.65;;
11646;SDS011;5880;52.342;9.662;2023-09-12T11:06:50;4.15;;;3.75;;
11646;SDS011;5880;52.342;9.662;2023-09-12T11:11:54;5.20;;;4.10;;
11646;SDS011;5880;52.342;9.662;2023-09-12T11:14:21;4.45;;;4.05;;
11646;SDS011;5880;52.342;9.662;2023-09-12T11:19:45;4.53;;;4.03;;
11646;SDS011;5880;52.342;9.662;2023-09-12T11:24:49;4.60;;;4.20;;
11646;SDS011;5880;52.342;9.662;2023-09-12T11:27:15;4.32;;;3.92;;
11646;SDS011;5880;52.342;9.662;2023-09-12T11:29:42;5.43;;;4.40;;
11646;SDS011;5880;52.342;9.662;2023-09-12T11:32:08;4.45;;;4.05;;
11646;SDS011;5880;52.342;9.662;2023-09-12T11:34:43;4.15;;;3.75;;
11646;SDS011;5880;52.342;9.662;2023-09-12T11:37:12;4.20;;;3.80;;
11646;SDS011;5880;52.342;9.662;2023-09-12T11:39:49;4.00;;;3.70;;
11646;SDS011;5880;52.342;9.662;2023-09-12T11:42:17;4.30;;;3.90;;
11646;SDS011;5880;52.342;9.662;2023-09-12T11:44:43;4.85;;;4.28;;
11646;SDS011;5880;52.342;9.662;2023-09-12T11:47:12;6.32;;;4.60;;
11646;SDS011;5880;52.342;9.662;2023-09-12T11:49:38;5.00;;;4.50;;
11646;SDS011;5880;52.342;9.662;2023-09-12T11:52:13;5.68;;;4.47;;
11646;SDS011;5880;52.342;9.662;2023-09-12T11:54:44;4.38;;;3.97;;
11646;SDS011;5880;52.342;9.662;2023-09-12T11:57:12;4.82;;;4.30;;
11646;SDS011;5880;52.342;9.662;2023-09-12T11:59:40;4.38;;;3.92;;
11646;SDS011;5880;52.342;9.662;2023-09-12T12:02:16;4.70;;;3.90;;
11646;SDS011;5880;52.342;9.662;2023-09-12T12:04:43;5.88;;;4.60;;
11646;SDS011;5880;52.342;9.662;2023-09-12T12:07:10;4.90;;;4.45;;
11646;SDS011;5880;52.342;9.662;2023-09-12T12:09:36;5.32;;;4.22;;
11646;SDS011;5880;52.342;9.662;2023-09-12T12:12:12;4.45;;;3.90;;
11646;SDS011;5880;52.342;9.662;2023-09-12T12:14:39;4.82;;;4.25;;
11646;SDS011;5880;52.342;9.662;2023-09-12T12:17:07;4.70;;;4.30;;
11646;SDS011;5880;52.342;9.662;2023-09-12T12:19:37;4.70;;;4.30;;
11646;SDS011;5880;52.342;9.662;2023-09-12T12:22:04;4.65;;;4.20;;
11646;SDS011;5880;52.342;9.662;2023-09-12T12:27:10;5.03;;;4.60;;
11646;SDS011;5880;52.342;9.662;2023-09-12T12:29:37;5.90;;;4.47;;
11646;SDS011;5880;52.342;9.662;2023-09-12T12:32:07;4.40;;;4.00;;
11646;SDS011;5880;52.342;9.662;2023-09-12T12:34:34;4.60;;;4.20;;
11646;SDS011;5880;52.342;9.662;2023-09-12T12:37:00;4.22;;;3.83;;
11646;SDS011;5880;52.342;9.662;2023-09-12T12:39:26;4.00;;;3.67;;
11646;SDS011;5880;52.342;9.662;2023-09-12T12:41:52;4.63;;;3.63;;
11646;SDS011;5880;52.342;9.662;2023-09-12T12:44:19;4.22;;;3.90;;
11646;SDS011;5880;52.342;9.662;2023-09-12T12:46:50;4.57;;;4.18;;
11646;SDS011;5880;52.342;9.662;2023-09-12T12:49:17;4.15;;;3.67;;
11646;SDS011;5880;52.342;9.662;2023-09-12T12:51:44;4.20;;;3.88;;
11646;SDS011;5880;52.342;9.662;2023-09-12T12:54:11;4.43;;;4.03;;
11646;SDS011;5880;52.342;9.662;2023-09-12T12:56:37;3.92;;;3.63;;
11646;SDS011;5880;52.342;9.662;2023-09-12T12:59:04;4.18;;;3.85;;
11646;SDS011;5880;52.342;9.662;2023-09-12T13:01:34;4.35;;;4.00;;
11646;SDS011;5880;52.342;9.662;2023-09-12T13:04:01;4.40;;;4.00;;
11646;SDS011;5880;52.342;9.662;2023-09-12T13:06:31;4.40;;;3.92;;
11646;SDS011;5880;52.342;9.662;2023-09-12T13:09:00;4.55;;;4.15;;
11646;SDS011;5880;52.342;9.662;2023-09-12T13:11:30;5.47;;;4.38;;
11646;SDS011;5880;52.342;9.662;2023-09-12T13:14:00;4.32;;;3.90;;
11646;SDS011;5880;52.342;9.662;2023-09-12T13:16:28;4.40;;;4.05;;
11646;SDS011;5880;52.342;9.662;2023-09-12T13:18:54;4.72;;;4.32;;
11646;SDS011;5880;52.342;9.662;2023-09-12T13:21:20;4.97;;;4.57;;
11646;SDS011;5880;52.342;9.662;2023-09-12T13:23:45;4.50;;;4.10;;
11646;SDS011;5880;52.342;9.662;2023-09-12T13:26:11;4.45;;;4.05;;
11646;SDS011;5880;52.342;9.662;2023-09-12T13:28:37;3.90;;;3.60;;
11646;SDS011;5880;52.342;9.662;2023-09-12T13:31:03;3.75;;;3.45;;
11646;SDS011;5880;52.342;9.662;2023-09-12T13:33:29;3.88;;;3.30;;
11646;SDS011;5880;52.342;9.662;2023-09-12T13:35:54;3.63;;;3.33;;
11646;SDS011;5880;52.342;9.662;2023-09-12T13:38:20;3.45;;;3.15;;
11646;SDS011;5880;52.342;9.662;2023-09-12T13:40:47;3.25;;;2.95;;
11646;SDS011;5880;52.342;9.662;2023-09-12T13:43:13;3.65;;;3.03;;
11646;SDS011;5880;52.342;9.662;2023-09-12T13:45:39;3.13;;;2.83;;
11646;SDS011;5880;52.342;9.662;2023-09-12T13:48:06;2.90;;;2.70;;
11646;SDS011;5880;52.342;9.662;2023-09-12T13:50:32;3.03;;;2.83;;
11646;SDS011;5880;52.342;9.662;2023-09-12T13:52:59;2.90;;;2.70;;
11646;SDS011;5880;52.342;9.662;2023-09-12T13:55:31;2.60;;;2.40;;
11646;SDS011;5880;52.342;9.662;2023-09-12T13:57:59;2.95;;;2.70;;
11646;SDS011;5880;52.342;9.662;2023-09-12T14:00:28;2.55;;;2.33;;
11646;SDS011;5880;52.342;9.662;2023-09-12T14:02:55;3.45;;;2.30;;
11646;SDS011;5880;52.342;9.662;2023-09-12T14:05:21;2.75;;;2.53;;
11646;SDS011;5880;52.342;9.662;2023-09-12T14:07:47;2.40;;;2.20;;
11646;SDS011;5880;52.342;9.662;2023-09-12T14:10:13;2.58;;;2.38;;
11646;SDS011;5880;52.342;9.662;2023-09-12T14:12:38;3.58;;;2.10;;
11646;SDS011;5880;52.342;9.662;2023-09-12T14:15:04;3.33;;;2.30;;
11646;SDS011;5880;52.342;9.662;2023-09-12T14:17:31;2.20;;;2.10;;
11646;SDS011;5880;52.342;9.662;2023-09-12T14:19:57;2.40;;;2.20;;
11646;SDS011;5880;52.342;9.662;2023-09-12T14:22:23;2.33;;;2.22;;
11646;SDS011;5880;52.342;9.662;2023-09-12T14:24:49;2.78;;;2.58;;
11646;SDS011;5880;52.342;9.662;2023-09-12T14:27:15;2.38;;;2.20;;
11646;SDS011;5880;52.342;9.662;2023-09-12T14:29:40;2.88;;;2.40;;
11646;SDS011;5880;52.342;9.662;2023-09-12T14:32:10;2.95;;;2.60;;
11646;SDS011;5880;52.342;9.662;2023-09-12T14:34:37;3.03;;;2.55;;
11646;SDS011;5880;52.342;9.662;2023-09-12T14:37:03;4.57;;;2.40;;
11646;SDS011;5880;52.342;9.662;2023-09-12T14:39:28;2.60;;;2.40;;
11646;SDS011;5880;52.342;9.662;2023-09-12T14:41:54;2.78;;;2.58;;
11646;SDS011;5880;52.342;9.662;2023-09-12T14:44:21;2.65;;;2.45;;
11646;SDS011;5880;52.342;9.662;2023-09-12T14:46:47;2.53;;;2.33;;
11646;SDS011;5880;52.342;9.662;2023-09-12T14:49:13;3.80;;;2.47;;
11646;SDS011;5880;52.342;9.662;2023-09-12T14:51:39;2.60;;;2.40;;
11646;SDS011;5880;52.342;9.662;2023-09-12T14:54:05;2.70;;;2.45;;
11646;SDS011;5880;52.342;9.662;2023-09-12T14:56:32;2.40;;;2.20;;
11646;SDS011;5880;52.342;9.662;2023-09-12T14:58:59;2.50;;;2.30;;
11646;SDS011;5880;52.342;9.662;2023-09-12T15:01:26;2.42;;;2.22;;
11646;SDS011;5880;52.342;9.662;2023-09-12T15:03:52;2.60;;;2.40;;
11646;SDS011;5880;52.342;9.662;2023-09-12T15:06:18;2.55;;;2.35;;
11646;SDS011;5880;52.342;9.662;2023-09-12T15:08:45;2.47;;;2.28;;
11646;SDS011;5880;52.342;9.662;2023-09-12T15:11:10;2.33;;;2.15;;
11646;SDS011;5880;52.342;9.662;2023-09-12T15:13:36;2.03;;;1.92;;
11646;SDS011;5880;52.342;9.662;2023-09-12T15:16:03;2.40;;;2.22;;